createdAt,value
2022-11-29T00:01:16.122Z,27.67
2022-11-29T00:03:43.056Z,29.20
2022-11-29T00:06:12.904Z,29.85
2022-11-29T00:08:42.035Z,30.35
2022-11-29T00:11:09.951Z,31.52
2022-11-29T00:13:36.665Z,28.95
2022-11-29T00:16:04.289Z,30.77
2022-11-29T00:18:30.904Z,27.58
2022-11-29T00:20:57.420Z,27.33
2022-11-29T00:23:24.114Z,28.30
2022-11-29T00:25:50.668Z,28.67
2022-11-29T00:28:17.249Z,28.40
2022-11-29T00:30:43.958Z,28.23
2022-11-29T00:33:11.756Z,29.02
2022-11-29T00:35:41.342Z,27.98
2022-11-29T00:38:07.946Z,29.95
2022-11-29T00:40:34.536Z,30.55
2022-11-29T00:43:01.129Z,31.50
2022-11-29T00:45:27.808Z,29.92
2022-11-29T00:47:55.117Z,29.85
2022-11-29T00:50:21.667Z,30.88
2022-11-29T00:52:48.313Z,31.02
2022-11-29T00:55:15.038Z,30.42
2022-11-29T00:57:41.677Z,29.65
2022-11-29T01:00:08.462Z,29.65
2022-11-29T01:02:35.012Z,31.30
2022-11-29T01:05:01.638Z,29.92
2022-11-29T01:07:28.168Z,31.90
2022-11-29T01:09:54.743Z,32.15
2022-11-29T01:12:21.237Z,33.67
2022-11-29T01:14:47.702Z,34.58
2022-11-29T01:17:14.224Z,34.25
2022-11-29T01:19:40.719Z,37.42
2022-11-29T01:22:07.230Z,36.67
2022-11-29T01:24:33.752Z,37.15
2022-11-29T01:27:00.468Z,33.97
2022-11-29T01:29:30.532Z,32.95
2022-11-29T01:31:57.103Z,31.27
2022-11-29T01:34:23.961Z,31.35
2022-11-29T01:36:53.702Z,30.55
2022-11-29T01:39:20.235Z,30.48
2022-11-29T01:41:49.693Z,32.22
2022-11-29T01:44:17.398Z,33.90
2022-11-29T01:46:47.921Z,32.53
2022-11-29T01:49:19.641Z,34.70
2022-11-29T01:51:48.821Z,34.65
2022-11-29T01:54:16.539Z,31.15
2022-11-29T01:56:44.608Z,35.00
2022-11-29T01:59:13.610Z,32.22
2022-11-29T02:01:40.336Z,33.75
2022-11-29T02:04:07.321Z,34.13
2022-11-29T02:06:34.279Z,34.00
2022-11-29T02:09:01.013Z,35.35
2022-11-29T02:11:36.721Z,36.35
2022-11-29T02:14:05.960Z,32.67
2022-11-29T02:16:37.180Z,37.13
2022-11-29T02:19:10.655Z,37.80
2022-11-29T02:21:49.519Z,40.90
2022-11-29T02:24:19.025Z,37.10
2022-11-29T02:26:57.529Z,36.15
2022-11-29T02:29:34.402Z,37.92
2022-11-29T02:32:00.905Z,35.95
2022-11-29T02:34:36.465Z,37.40
2022-11-29T02:37:18.277Z,36.50
2022-11-29T02:40:08.608Z,34.33
2022-11-29T02:42:56.776Z,33.65
2022-11-29T02:45:23.632Z,33.88
2022-11-29T02:47:55.981Z,32.30
2022-11-29T02:50:31.520Z,35.28
2022-11-29T02:53:16.917Z,33.55
2022-11-29T02:56:04.658Z,34.67
2022-11-29T02:58:46.131Z,33.22
2022-11-29T03:01:26.111Z,36.05
2022-11-29T03:03:55.677Z,32.92
2022-11-29T03:06:30.355Z,32.35
2022-11-29T03:09:04.636Z,32.65
2022-11-29T03:11:35.394Z,32.78
2022-11-29T03:14:23.737Z,30.80
2022-11-29T03:17:08.887Z,32.80
2022-11-29T03:19:41.061Z,32.00
2022-11-29T03:22:17.293Z,33.65
2022-11-29T03:24:50.152Z,35.25
2022-11-29T03:27:22.578Z,33.58
2022-11-29T03:29:53.089Z,34.78
2022-11-29T03:32:26.431Z,34.95
2022-11-29T03:35:08.295Z,33.95
2022-11-29T03:37:42.214Z,35.08
2022-11-29T03:40:19.490Z,34.03
2022-11-29T03:42:56.990Z,33.63
2022-11-29T03:45:42.482Z,34.15
2022-11-29T03:48:23.359Z,34.88
2022-11-29T03:51:00.224Z,34.97
2022-11-29T03:53:32.692Z,35.10
2022-11-29T03:56:01.112Z,31.63
2022-11-29T03:58:34.830Z,35.03
2022-11-29T04:01:29.616Z,35.42
2022-11-29T04:04:21.451Z,34.05
2022-11-29T04:06:48.225Z,36.28
2022-11-29T04:09:19.890Z,34.80
2022-11-29T04:12:08.776Z,32.35
2022-11-29T04:14:36.604Z,36.55
2022-11-29T04:17:25.206Z,36.90
2022-11-29T04:20:09.963Z,35.25
2022-11-29T04:22:55.321Z,35.45
2022-11-29T04:25:54.402Z,35.70
2022-11-29T04:28:21.020Z,36.33
2022-11-29T04:31:07.190Z,33.60
2022-11-29T04:33:52.668Z,33.88
2022-11-29T04:36:38.219Z,30.38
2022-11-29T04:39:07.535Z,34.03
2022-11-29T04:41:36.970Z,34.28
2022-11-29T04:44:22.107Z,34.95
2022-11-29T04:46:58.341Z,33.20
2022-11-29T04:49:25.280Z,32.20
2022-11-29T04:51:57.901Z,32.90
2022-11-29T04:54:27.570Z,29.83
2022-11-29T04:57:14.527Z,27.92
2022-11-29T04:59:53.560Z,26.35
2022-11-29T05:02:31.919Z,25.77
2022-11-29T05:05:33.785Z,25.92
2022-11-29T05:08:18.382Z,26.98
2022-11-29T05:10:44.975Z,26.38
2022-11-29T05:13:20.688Z,28.30
2022-11-29T05:16:06.213Z,27.90
2022-11-29T05:18:33.276Z,26.23
2022-11-29T05:21:02.640Z,27.38
2022-11-29T05:23:32.356Z,27.45
2022-11-29T05:26:09.532Z,28.17
2022-11-29T05:28:48.328Z,28.02
2022-11-29T05:31:24.240Z,28.27
2022-11-29T05:33:53.611Z,26.98
2022-11-29T05:36:23.823Z,27.90
2022-11-29T05:39:07.728Z,28.63
2022-11-29T05:41:34.246Z,27.02
2022-11-29T05:44:20.569Z,28.40
2022-11-29T05:47:16.821Z,29.08
2022-11-29T05:49:52.186Z,29.55
2022-11-29T05:52:34.232Z,29.25
2022-11-29T05:55:19.715Z,29.70
2022-11-29T05:57:46.280Z,30.25
2022-11-29T06:00:14.766Z,29.85
2022-11-29T06:02:44.123Z,28.10
2022-11-29T06:05:31.324Z,31.38
2022-11-29T06:08:11.320Z,32.30
2022-11-29T06:10:40.204Z,34.95
2022-11-29T06:13:25.718Z,36.10
2022-11-29T06:16:33.505Z,35.42
2022-11-29T06:19:20.109Z,36.78
2022-11-29T06:22:05.981Z,36.97
2022-11-29T06:24:50.681Z,35.85
2022-11-29T06:27:36.829Z,38.08
2022-11-29T06:30:21.189Z,38.92
2022-11-29T06:32:50.688Z,39.08
2022-11-29T06:35:23.207Z,41.33
2022-11-29T06:37:51.457Z,38.85
2022-11-29T06:40:18.116Z,40.35
2022-11-29T06:42:45.998Z,42.80
2022-11-29T06:45:13.994Z,42.83
2022-11-29T06:47:44.407Z,44.95
2022-11-29T06:50:32.601Z,43.95
2022-11-29T06:53:04.986Z,43.35
2022-11-29T06:55:43.586Z,43.05
2022-11-29T06:58:36.246Z,44.38
2022-11-29T07:01:03.050Z,40.70
2022-11-29T07:03:45.035Z,39.95
2022-11-29T07:06:18.788Z,43.35
2022-11-29T07:08:45.578Z,41.85
2022-11-29T07:11:17.468Z,42.70
2022-11-29T07:13:46.721Z,40.53
2022-11-29T07:16:25.941Z,41.40
2022-11-29T07:18:52.525Z,41.88
2022-11-29T07:21:31.269Z,42.05
2022-11-29T07:24:06.069Z,39.22
2022-11-29T07:26:41.563Z,39.13
2022-11-29T07:29:10.563Z,40.75
2022-11-29T07:31:46.243Z,41.53
2022-11-29T07:34:24.844Z,39.92
2022-11-29T07:37:29.191Z,40.83
2022-11-29T07:40:14.104Z,41.95
2022-11-29T07:42:59.379Z,41.15
2022-11-29T07:45:33.550Z,41.65
2022-11-29T07:48:00.268Z,42.72
2022-11-29T07:50:27.475Z,43.55
2022-11-29T07:52:54.367Z,41.08
2022-11-29T07:55:21.728Z,43.17
2022-11-29T07:57:51.157Z,41.05
2022-11-29T08:00:18.648Z,41.03
2022-11-29T08:02:46.474Z,45.25
2022-11-29T08:05:13.071Z,43.47
2022-11-29T08:07:40.896Z,45.13
2022-11-29T08:10:11.945Z,45.92
2022-11-29T08:12:42.274Z,45.78
2022-11-29T08:15:15.169Z,48.08
2022-11-29T08:17:41.768Z,50.72
2022-11-29T08:20:08.779Z,50.25
2022-11-29T08:22:35.821Z,49.20
2022-11-29T08:25:05.295Z,47.17
2022-11-29T08:27:32.287Z,46.67
2022-11-29T08:29:59.366Z,48.17
2022-11-29T08:32:28.819Z,48.30
2022-11-29T08:34:55.577Z,50.50
2022-11-29T08:37:24.877Z,50.95
2022-11-29T08:39:51.420Z,48.90
2022-11-29T08:42:18.089Z,49.17
2022-11-29T08:44:44.894Z,50.90
2022-11-29T08:47:30.401Z,47.90
2022-11-29T08:50:02.876Z,47.47
2022-11-29T08:52:51.468Z,47.90
2022-11-29T08:55:23.407Z,43.95
2022-11-29T08:57:53.431Z,48.85
2022-11-29T09:00:22.421Z,48.45
2022-11-29T09:02:49.217Z,43.78
2022-11-29T09:05:16.030Z,46.08
2022-11-29T09:07:43.158Z,50.95
2022-11-29T09:10:11.485Z,50.17
2022-11-29T09:12:38.854Z,50.45
2022-11-29T09:15:06.645Z,50.38
2022-11-29T09:17:33.260Z,51.03
2022-11-29T09:20:00.268Z,52.17
2022-11-29T09:22:29.872Z,55.75
2022-11-29T09:24:58.000Z,49.47
2022-11-29T09:27:24.909Z,47.63
2022-11-29T09:29:51.447Z,50.05
2022-11-29T09:32:18.001Z,48.03
2022-11-29T09:34:45.156Z,50.33
2022-11-29T09:37:11.991Z,48.35
2022-11-29T09:39:42.580Z,50.05
2022-11-29T09:42:31.651Z,49.05
2022-11-29T09:45:12.972Z,47.15
2022-11-29T09:47:58.526Z,48.40
2022-11-29T09:50:29.527Z,50.38
2022-11-29T09:53:02.781Z,48.50
2022-11-29T09:55:38.839Z,47.72
2022-11-29T09:58:06.669Z,47.90
2022-11-29T10:00:35.626Z,51.25
2022-11-29T10:03:10.631Z,49.30
2022-11-29T10:05:47.851Z,46.65
2022-11-29T10:08:17.192Z,48.67
2022-11-29T10:10:48.291Z,45.00
2022-11-29T10:13:21.330Z,49.38
2022-11-29T10:15:50.220Z,45.40
2022-11-29T10:18:25.715Z,42.28
2022-11-29T10:20:53.817Z,43.20
2022-11-29T10:23:39.297Z,44.47
2022-11-29T10:26:08.576Z,43.50
2022-11-29T10:28:36.189Z,44.97
2022-11-29T10:31:08.782Z,39.80
2022-11-29T10:33:37.100Z,44.22
2022-11-29T10:36:04.975Z,43.05
2022-11-29T10:38:32.059Z,42.78
2022-11-29T10:41:04.616Z,44.20
2022-11-29T10:43:31.375Z,43.50
2022-11-29T10:45:58.911Z,43.33
2022-11-29T10:48:27.709Z,42.90
2022-11-29T10:50:54.392Z,44.30
2022-11-29T10:53:41.137Z,38.55
2022-11-29T10:56:16.448Z,43.75
2022-11-29T10:59:12.158Z,41.08
2022-11-29T11:01:41.100Z,39.60
2022-11-29T11:04:10.979Z,39.92
2022-11-29T11:06:48.545Z,38.58
2022-11-29T11:09:33.725Z,36.83
2022-11-29T11:12:05.332Z,38.00
2022-11-29T11:14:33.239Z,38.22
2022-11-29T11:17:23.086Z,36.13
2022-11-29T11:20:01.140Z,38.03
2022-11-29T11:22:28.417Z,37.33
2022-11-29T11:25:00.675Z,38.35
2022-11-29T11:27:31.401Z,39.60
2022-11-29T11:29:58.216Z,39.28
2022-11-29T11:32:24.888Z,39.78
2022-11-29T11:34:56.000Z,39.40
2022-11-29T11:37:24.785Z,38.08
2022-11-29T11:39:52.798Z,37.60
2022-11-29T11:42:37.364Z,36.75
2022-11-29T11:45:17.641Z,36.10
2022-11-29T11:47:44.221Z,37.67
2022-11-29T11:50:14.019Z,37.72
2022-11-29T11:52:50.384Z,35.92
2022-11-29T11:55:38.945Z,35.33
2022-11-29T11:58:10.159Z,35.58
2022-11-29T12:03:29.934Z,32.80
2022-11-29T12:06:15.533Z,34.00
2022-11-29T12:08:45.052Z,32.22
2022-11-29T12:11:13.630Z,33.00
2022-11-29T12:13:42.701Z,32.65
2022-11-29T12:16:13.792Z,32.90
2022-11-29T12:18:47.715Z,32.17
2022-11-29T12:21:16.621Z,31.05
2022-11-29T12:23:46.729Z,29.90
2022-11-29T12:26:55.227Z,31.80
2022-11-29T12:29:13.126Z,38.55
2022-11-29T12:32:04.840Z,31.10
2022-11-29T12:34:48.560Z,31.10
2022-11-29T12:37:15.397Z,31.45
2022-11-29T12:39:42.500Z,33.13
2022-11-29T12:42:16.715Z,34.88
2022-11-29T12:44:51.491Z,30.38
2022-11-29T12:47:39.429Z,31.90
2022-11-29T12:50:26.279Z,34.25
2022-11-29T12:53:01.694Z,32.40
2022-11-29T12:55:33.607Z,28.48
2022-11-29T12:58:30.831Z,32.95
2022-11-29T13:01:03.825Z,34.00
2022-11-29T13:03:38.820Z,33.10
2022-11-29T13:06:05.406Z,35.00
2022-11-29T13:08:41.104Z,35.40
2022-11-29T13:11:26.386Z,32.05
2022-11-29T13:14:13.709Z,30.73
2022-11-29T13:19:14.376Z,30.95
2022-11-29T13:21:43.820Z,31.25
2022-11-29T13:24:14.254Z,32.05
2022-11-29T13:26:42.073Z,34.50
2022-11-29T13:29:13.931Z,33.22
2022-11-29T13:31:40.773Z,33.55
2022-11-29T13:34:07.639Z,32.35
2022-11-29T13:36:34.137Z,34.63
2022-11-29T13:39:19.623Z,34.47
2022-11-29T13:41:51.687Z,32.55
2022-11-29T13:46:46.526Z,32.55
2022-11-29T13:49:23.494Z,34.13
2022-11-29T13:52:06.023Z,33.08
2022-11-29T13:54:36.118Z,33.58
2022-11-29T13:57:07.177Z,35.33
2022-11-29T13:59:47.093Z,31.40
2022-11-29T14:02:32.839Z,32.28
2022-11-29T14:04:59.500Z,31.67
2022-11-29T14:07:32.358Z,35.70
2022-11-29T14:09:58.958Z,33.45
2022-11-29T14:12:45.705Z,34.38
2022-11-29T14:15:18.187Z,33.90
2022-11-29T14:17:49.279Z,34.90
2022-11-29T14:20:31.116Z,34.50
2022-11-29T14:23:06.703Z,34.88
2022-11-29T14:25:52.557Z,34.92
2022-11-29T14:28:22.138Z,33.97
2022-11-29T14:30:53.609Z,35.47
2022-11-29T14:33:38.752Z,36.42
2022-11-29T14:36:23.902Z,36.08
2022-11-29T14:39:23.264Z,34.25
2022-11-29T14:42:14.540Z,33.28
2022-11-29T14:44:45.872Z,33.35
2022-11-29T14:47:15.267Z,32.70
2022-11-29T14:49:43.152Z,33.40
2022-11-29T14:52:16.671Z,31.63
2022-11-29T14:54:54.786Z,32.17
2022-11-29T14:57:42.781Z,28.55
2022-11-29T15:00:12.768Z,31.83
2022-11-29T15:02:47.270Z,31.65
2022-11-29T15:05:20.156Z,32.47
2022-11-29T15:08:02.048Z,31.25
2022-11-29T15:10:34.118Z,32.00
2022-11-29T15:15:35.583Z,32.47
2022-11-29T15:18:20.858Z,33.47
2022-11-29T15:21:05.892Z,31.58
2022-11-29T15:23:42.730Z,28.92
2022-11-29T15:26:17.361Z,30.95
2022-11-29T15:28:47.499Z,31.85
2022-11-29T15:31:19.282Z,30.33
2022-11-29T15:33:47.064Z,32.60
2022-11-29T15:36:18.658Z,27.63
2022-11-29T15:38:56.528Z,32.40
2022-11-29T15:41:25.910Z,30.35
2022-11-29T15:43:59.692Z,31.70
2022-11-29T15:46:27.444Z,33.00
2022-11-29T15:48:54.560Z,31.90
2022-11-29T15:51:21.224Z,32.28
2022-11-29T15:53:50.365Z,28.95
2022-11-29T15:56:29.130Z,31.80
2022-11-29T15:58:58.630Z,32.33
2022-11-29T16:01:25.293Z,33.30
2022-11-29T16:03:54.199Z,33.35
2022-11-29T16:06:20.692Z,33.90
2022-11-29T16:08:47.923Z,35.53
2022-11-29T16:11:19.324Z,34.40
2022-11-29T16:14:21.280Z,35.20
2022-11-29T16:16:49.294Z,34.17
2022-11-29T16:19:35.359Z,35.20
2022-11-29T16:22:11.786Z,33.50
2022-11-29T16:24:39.777Z,34.33
2022-11-29T16:27:10.892Z,35.40
2022-11-29T16:29:38.434Z,35.60
2022-11-29T16:32:18.252Z,35.83
2022-11-29T16:34:47.143Z,34.30
2022-11-29T16:37:18.691Z,32.60
2022-11-29T16:39:49.883Z,32.80
2022-11-29T16:42:23.594Z,34.13
2022-11-29T16:44:55.001Z,33.53
2022-11-29T16:47:28.856Z,32.65
2022-11-29T16:50:04.299Z,32.83
2022-11-29T16:52:36.591Z,34.95
2022-11-29T16:55:06.176Z,34.40
2022-11-29T16:57:39.921Z,35.78
2022-11-29T17:00:11.402Z,35.58
2022-11-29T17:02:37.964Z,35.42
2022-11-29T17:05:04.593Z,36.13
2022-11-29T17:07:33.967Z,30.13
2022-11-29T17:10:00.612Z,33.40
2022-11-29T17:12:27.097Z,35.30
2022-11-29T17:14:53.585Z,33.45
2022-11-29T17:17:20.120Z,33.63
2022-11-29T17:19:46.615Z,31.92
2022-11-29T17:22:13.063Z,35.97
2022-11-29T17:24:44.943Z,36.13
2022-11-29T17:27:14.622Z,35.65
2022-11-29T17:29:41.665Z,32.47
2022-11-29T17:32:08.457Z,35.63
2022-11-29T17:34:35.370Z,35.90
2022-11-29T17:37:04.019Z,37.30
2022-11-29T17:39:35.649Z,36.65
2022-11-29T17:42:02.217Z,33.58
2022-11-29T17:44:28.902Z,35.25
2022-11-29T17:46:55.467Z,35.03
2022-11-29T17:49:22.044Z,36.25
2022-11-29T17:51:53.297Z,37.53
2022-11-29T17:54:21.128Z,35.33
2022-11-29T17:56:47.835Z,36.80
2022-11-29T17:59:16.875Z,33.22
2022-11-29T18:01:43.724Z,32.67
2022-11-29T18:04:10.390Z,36.97
2022-11-29T18:06:37.900Z,38.30
2022-11-29T18:09:05.622Z,37.13
2022-11-29T18:11:45.237Z,37.95
2022-11-29T18:14:16.869Z,32.45
2022-11-29T18:16:47.153Z,37.70
2022-11-29T18:19:16.366Z,39.35
2022-11-29T18:21:43.691Z,36.72
2022-11-29T18:24:13.857Z,35.95
2022-11-29T18:26:40.925Z,38.33
2022-11-29T18:29:07.698Z,34.95
2022-11-29T18:31:37.353Z,37.13
2022-11-29T18:34:09.991Z,38.92
2022-11-29T18:36:37.881Z,40.17
2022-11-29T18:39:08.972Z,37.35
2022-11-29T18:41:36.012Z,39.53
2022-11-29T18:44:04.287Z,37.88
2022-11-29T18:46:32.963Z,37.88
2022-11-29T18:49:03.791Z,39.05
2022-11-29T18:51:30.922Z,39.17
2022-11-29T18:53:58.061Z,33.50
2022-11-29T18:56:25.702Z,37.78
2022-11-29T18:58:59.845Z,33.47
2022-11-29T19:01:30.260Z,37.92
2022-11-29T19:03:57.963Z,38.00
2022-11-29T19:06:39.195Z,39.30
2022-11-29T19:09:07.111Z,39.70
2022-11-29T19:11:35.116Z,36.53
2022-11-29T19:14:04.037Z,40.90
2022-11-29T19:16:31.833Z,39.80
2022-11-29T19:18:59.266Z,40.83
2022-11-29T19:21:26.704Z,38.10
2022-11-29T19:23:54.177Z,39.72
2022-11-29T19:26:21.093Z,41.08
2022-11-29T19:28:47.792Z,40.45
2022-11-29T19:31:18.148Z,40.42
2022-11-29T19:33:46.268Z,38.58
2022-11-29T19:36:17.157Z,40.67
2022-11-29T19:38:47.581Z,40.85
2022-11-29T19:41:25.641Z,39.50
2022-11-29T19:43:54.798Z,39.55
2022-11-29T19:46:22.822Z,41.30
2022-11-29T19:48:55.118Z,43.17
2022-11-29T19:51:26.275Z,41.45
2022-11-29T19:53:55.900Z,43.05
2022-11-29T19:56:25.648Z,42.28
2022-11-29T19:58:55.435Z,38.90
2022-11-29T20:01:24.521Z,41.35
2022-11-29T20:03:54.964Z,41.97
2022-11-29T20:06:24.515Z,40.38
2022-11-29T20:08:51.166Z,39.38
2022-11-29T20:11:18.921Z,39.38
2022-11-29T20:13:46.482Z,37.53
2022-11-29T20:16:24.738Z,38.58
2022-11-29T20:18:51.829Z,38.83
2022-11-29T20:21:30.205Z,37.25
2022-11-29T20:24:02.338Z,38.63
2022-11-29T20:26:29.846Z,39.40
2022-11-29T20:28:59.240Z,39.42
2022-11-29T20:31:33.780Z,35.42
2022-11-29T20:34:03.066Z,37.33
2022-11-29T20:36:32.827Z,35.35
2022-11-29T20:39:18.223Z,35.63
2022-11-29T20:41:50.000Z,34.45
2022-11-29T20:44:23.009Z,38.80
2022-11-29T20:46:52.189Z,39.50
2022-11-29T20:49:19.228Z,39.03
2022-11-29T20:51:51.484Z,38.20
2022-11-29T20:54:22.557Z,39.72
2022-11-29T20:56:52.369Z,38.60
2022-11-29T20:59:18.959Z,38.15
2022-11-29T21:01:45.861Z,39.53
2022-11-29T21:04:12.470Z,39.55
2022-11-29T21:06:39.371Z,40.05
2022-11-29T21:09:08.551Z,36.75
2022-11-29T21:11:35.248Z,37.85
2022-11-29T21:14:04.606Z,39.80
2022-11-29T21:16:33.407Z,40.75
2022-11-29T21:19:03.281Z,39.78
2022-11-29T21:21:39.474Z,35.08
2022-11-29T21:24:25.084Z,34.70
2022-11-29T21:26:52.007Z,36.40
2022-11-29T21:29:20.122Z,37.92
2022-11-29T21:31:47.539Z,39.75
2022-11-29T21:34:14.406Z,36.17
2022-11-29T21:36:41.255Z,38.10
2022-11-29T21:39:11.090Z,39.08
2022-11-29T21:41:37.616Z,34.97
2022-11-29T21:44:07.276Z,37.08
2022-11-29T21:46:34.356Z,33.17
2022-11-29T21:49:01.250Z,38.00
2022-11-29T21:51:41.693Z,33.33
2022-11-29T21:54:08.203Z,37.85
2022-11-29T21:56:34.752Z,37.30
2022-11-29T21:59:01.458Z,38.17
2022-11-29T22:01:29.688Z,38.90
2022-11-29T22:03:58.345Z,36.90
2022-11-29T22:06:26.219Z,39.63
2022-11-29T22:08:52.849Z,35.65
2022-11-29T22:11:40.983Z,38.95
2022-11-29T22:14:18.570Z,37.88
2022-11-29T22:16:54.331Z,39.97
2022-11-29T22:19:28.483Z,35.28
2022-11-29T22:21:55.951Z,40.00
2022-11-29T22:24:24.127Z,39.42
2022-11-29T22:26:51.439Z,39.17
2022-11-29T22:29:18.283Z,38.65
2022-11-29T22:31:47.150Z,40.97
2022-11-29T22:34:13.767Z,41.10
2022-11-29T22:36:40.841Z,39.63
2022-11-29T22:39:08.622Z,41.70
2022-11-29T22:41:35.835Z,42.90
2022-11-29T22:44:02.956Z,41.45
2022-11-29T22:46:31.727Z,42.42
2022-11-29T22:49:04.650Z,41.38
2022-11-29T22:51:33.965Z,40.97
2022-11-29T22:54:04.919Z,39.97
2022-11-29T22:56:33.560Z,42.53
2022-11-29T22:59:00.198Z,41.10
2022-11-29T23:01:30.681Z,43.05
2022-11-29T23:04:01.481Z,42.05
2022-11-29T23:06:32.014Z,38.05
2022-11-29T23:08:59.451Z,36.65
2022-11-29T23:11:38.902Z,39.63
2022-11-29T23:14:05.578Z,40.50
2022-11-29T23:16:33.321Z,38.25
2022-11-29T23:19:00.430Z,38.83
2022-11-29T23:21:28.530Z,37.55
2022-11-29T23:24:02.368Z,37.65
2022-11-29T23:26:39.370Z,36.28
2022-11-29T23:29:10.637Z,38.55
2022-11-29T23:31:40.271Z,38.47
2022-11-29T23:34:06.982Z,37.05
2022-11-29T23:36:33.854Z,39.53
2022-11-29T23:39:03.332Z,38.83
2022-11-29T23:41:29.851Z,40.05
2022-11-29T23:43:59.853Z,39.92
2022-11-29T23:46:31.845Z,35.78
2022-11-29T23:51:27.868Z,38.38
2022-11-29T23:53:56.998Z,39.60
2022-11-29T23:56:27.948Z,41.03
2022-11-29T23:58:54.543Z,41.92
